PUA2603 SUMU-SCTE
Flight info
| Callsign | PUA2603 |
|---|---|
| Flight time | 2h 34m |
| Altitude | 38000 |
| Route | UGIMI UL405 EZE UT654 BAR UM658 TONAR MIDOR5 |
| Aircraft | A20N/M-SDE2E3FGHIRWXY/LB1 |
Departure
| Time | 2026-05-05 22:24 |
|---|---|
| Airport | Carrasco General Cesáreo L. Berisso International Airport (SUMU) |
Arrival
| Time | 2026-05-06 00:58 |
|---|---|
| Airport | El Tepual International Airport (SCTE) |
| Time | Latitude | Longitude | Altitude | Speed | Heading |
|---|---|---|---|---|---|
| 2026-05-05 21:59 | -34.83653 | -56.01857 | 75 ft | 0 kts | 143° |
| 2026-05-05 22:14 | -34.83648 | -56.01862 | 75 ft | 2 kts | 145° |
| 2026-05-05 22:14 | -34.83637 | -56.01872 | 75 ft | 2 kts | 142° |
| 2026-05-05 22:15 | -34.83624 | -56.01883 | 76 ft | 2 kts | 143° |
| 2026-05-05 22:15 | -34.83612 | -56.01894 | 76 ft | 2 kts | 143° |
| 2026-05-05 22:15 | -34.83600 | -56.01905 | 76 ft | 2 kts | 143° |
| 2026-05-05 22:15 | -34.83593 | -56.01911 | 76 ft | 1 kts | 132° |
| 2026-05-05 22:16 | -34.83591 | -56.01923 | 76 ft | 1 kts | 68° |
| 2026-05-05 22:16 | -34.83594 | -56.01929 | 76 ft | 1 kts | 46° |
| 2026-05-05 22:16 | -34.83597 | -56.01933 | 76 ft | 0 kts | 53° |
| 2026-05-05 22:18 | -34.83584 | -56.01913 | 76 ft | 6 kts | 53° |
| 2026-05-05 22:18 | -34.83548 | -56.01852 | 79 ft | 9 kts | 54° |
| 2026-05-05 22:19 | -34.83512 | -56.01792 | 81 ft | 8 kts | 54° |
| 2026-05-05 22:19 | -34.83466 | -56.01763 | 82 ft | 7 kts | 353° |
| 2026-05-05 22:19 | -34.83420 | -56.01792 | 83 ft | 7 kts | 323° |
| 2026-05-05 22:19 | -34.83379 | -56.01830 | 83 ft | 7 kts | 323° |
| 2026-05-05 22:20 | -34.83332 | -56.01863 | 84 ft | 8 kts | 349° |
| 2026-05-05 22:20 | -34.83284 | -56.01831 | 84 ft | 8 kts | 53° |
| 2026-05-05 22:20 | -34.83251 | -56.01777 | 85 ft | 7 kts | 54° |
| 2026-05-05 22:20 | -34.83218 | -56.01725 | 86 ft | 7 kts | 52° |
| 2026-05-05 22:21 | -34.83181 | -56.01665 | 88 ft | 10 kts | 55° |
| 2026-05-05 22:21 | -34.83139 | -56.01594 | 91 ft | 9 kts | 54° |
| 2026-05-05 22:21 | -34.83105 | -56.01538 | 93 ft | 7 kts | 53° |
| 2026-05-05 22:21 | -34.83075 | -56.01488 | 94 ft | 7 kts | 54° |
| 2026-05-05 22:22 | -34.83043 | -56.01436 | 96 ft | 8 kts | 54° |
| 2026-05-05 22:22 | -34.83010 | -56.01382 | 98 ft | 7 kts | 52° |
| 2026-05-05 22:22 | -34.82975 | -56.01326 | 100 ft | 9 kts | 53° |
| 2026-05-05 22:22 | -34.82928 | -56.01255 | 102 ft | 12 kts | 44° |
| 2026-05-05 22:23 | -34.82845 | -56.01263 | 102 ft | 15 kts | 322° |
| 2026-05-05 22:23 | -34.82814 | -56.01392 | 98 ft | 23 kts | 241° |
| 2026-05-05 22:23 | -34.83062 | -56.01803 | 85 ft | 100 kts | 232° |
| 2026-05-05 22:23 | -34.83625 | -56.02731 | 73 ft | 166 kts | 233° |
| 2026-05-05 22:24 | -34.84354 | -56.03930 | 562 ft | 180 kts | 233° |
| 2026-05-05 22:24 | -34.85080 | -56.05120 | 1346 ft | 180 kts | 234° |
| 2026-05-05 22:24 | -34.85788 | -56.06376 | 2136 ft | 183 kts | 245° |
| 2026-05-05 22:24 | -34.86117 | -56.07911 | 2730 ft | 196 kts | 267° |
| 2026-05-05 22:25 | -34.86191 | -56.09637 | 3231 ft | 217 kts | 264° |
| 2026-05-05 22:25 | -34.86411 | -56.11507 | 3798 ft | 235 kts | 262° |
| 2026-05-05 22:25 | -34.86689 | -56.13536 | 4408 ft | 253 kts | 261° |
| 2026-05-05 22:25 | -34.87000 | -56.15652 | 5279 ft | 258 kts | 261° |
| 2026-05-05 22:26 | -34.87323 | -56.17767 | 6314 ft | 257 kts | 261° |
| 2026-05-05 22:26 | -34.87651 | -56.19878 | 7327 ft | 256 kts | 262° |
| 2026-05-05 22:26 | -34.87981 | -56.21997 | 8224 ft | 258 kts | 262° |
| 2026-05-05 22:26 | -34.88315 | -56.24138 | 9051 ft | 262 kts | 262° |
| 2026-05-05 22:27 | -34.88658 | -56.26324 | 9875 ft | 266 kts | 262° |
| 2026-05-05 22:27 | -34.89003 | -56.28531 | 10601 ft | 272 kts | 262° |
| 2026-05-05 22:27 | -34.89365 | -56.30866 | 11027 ft | 289 kts | 261° |
| 2026-05-05 22:27 | -34.89755 | -56.33370 | 11407 ft | 307 kts | 261° |
| 2026-05-05 22:28 | -34.90164 | -56.35982 | 11783 ft | 324 kts | 261° |
| 2026-05-05 22:28 | -34.90595 | -56.38725 | 12411 ft | 332 kts | 261° |
| 2026-05-05 22:28 | -34.91027 | -56.41479 | 13162 ft | 336 kts | 261° |
| 2026-05-05 22:28 | -34.91466 | -56.44292 | 13840 ft | 341 kts | 260° |
| 2026-05-05 22:29 | -34.91918 | -56.47168 | 14555 ft | 344 kts | 261° |
| 2026-05-05 22:29 | -34.92359 | -56.49994 | 15366 ft | 345 kts | 261° |
| 2026-05-05 22:29 | -34.92806 | -56.52855 | 16150 ft | 345 kts | 261° |
| 2026-05-05 22:29 | -34.93254 | -56.55739 | 16885 ft | 346 kts | 261° |
| 2026-05-05 22:30 | -34.93698 | -56.58600 | 17588 ft | 347 kts | 261° |
| 2026-05-05 22:30 | -34.94143 | -56.61471 | 18270 ft | 348 kts | 261° |
| 2026-05-05 22:30 | -34.94592 | -56.64383 | 18907 ft | 350 kts | 261° |
| 2026-05-05 22:30 | -34.95040 | -56.67287 | 19494 ft | 353 kts | 261° |
| 2026-05-05 22:31 | -34.95495 | -56.70248 | 20070 ft | 357 kts | 261° |
| 2026-05-05 22:31 | -34.95948 | -56.73196 | 20657 ft | 359 kts | 261° |
| 2026-05-05 22:31 | -34.96407 | -56.76189 | 21257 ft | 361 kts | 261° |
| 2026-05-05 22:31 | -34.96869 | -56.79204 | 21826 ft | 364 kts | 261° |
| 2026-05-05 22:32 | -34.97338 | -56.82273 | 22372 ft | 367 kts | 260° |
| 2026-05-05 22:32 | -34.97776 | -56.85336 | 22923 ft | 370 kts | 263° |
| 2026-05-05 22:32 | -34.98077 | -56.88452 | 23469 ft | 372 kts | 265° |
| 2026-05-05 22:32 | -34.98228 | -56.91568 | 23974 ft | 375 kts | 269° |
| 2026-05-05 22:33 | -34.98245 | -56.94767 | 24461 ft | 378 kts | 270° |
| 2026-05-05 22:33 | -34.98237 | -56.97947 | 24902 ft | 382 kts | 270° |
| 2026-05-05 22:33 | -34.98224 | -57.01197 | 25314 ft | 386 kts | 270° |
| 2026-05-05 22:33 | -34.98208 | -57.04483 | 25772 ft | 389 kts | 270° |
| 2026-05-05 22:34 | -34.98194 | -57.07772 | 26241 ft | 391 kts | 270° |
| 2026-05-05 22:34 | -34.98178 | -57.11100 | 26660 ft | 394 kts | 270° |
| 2026-05-05 22:34 | -34.98163 | -57.14465 | 27067 ft | 397 kts | 270° |
| 2026-05-05 22:34 | -34.98147 | -57.17828 | 27452 ft | 399 kts | 270° |
| 2026-05-05 22:35 | -34.98129 | -57.21166 | 27842 ft | 401 kts | 270° |
| 2026-05-05 22:35 | -34.98111 | -57.24585 | 28210 ft | 404 kts | 270° |
| 2026-05-05 22:35 | -34.98092 | -57.28033 | 28575 ft | 405 kts | 270° |
| 2026-05-05 22:35 | -34.98072 | -57.31446 | 28893 ft | 408 kts | 271° |
| 2026-05-05 22:36 | -34.98051 | -57.34896 | 29175 ft | 410 kts | 271° |
| 2026-05-05 22:36 | -34.98030 | -57.38409 | 29493 ft | 412 kts | 271° |
| 2026-05-05 22:36 | -34.98006 | -57.41875 | 29800 ft | 413 kts | 271° |
| 2026-05-05 22:36 | -34.97979 | -57.45442 | 30079 ft | 414 kts | 271° |
| 2026-05-05 22:37 | -34.97953 | -57.48937 | 30432 ft | 413 kts | 271° |
| 2026-05-05 22:37 | -34.97926 | -57.52466 | 30799 ft | 412 kts | 271° |
| 2026-05-05 22:37 | -34.97899 | -57.55978 | 31127 ft | 411 kts | 271° |
| 2026-05-05 22:37 | -34.97870 | -57.59507 | 31413 ft | 411 kts | 270° |
| 2026-05-05 22:38 | -34.97838 | -57.63009 | 31697 ft | 411 kts | 270° |
| 2026-05-05 22:38 | -34.97809 | -57.66448 | 31993 ft | 410 kts | 271° |
| 2026-05-05 22:38 | -34.97779 | -57.69913 | 32333 ft | 408 kts | 271° |
| 2026-05-05 22:38 | -34.97746 | -57.73331 | 32662 ft | 407 kts | 271° |
| 2026-05-05 22:39 | -34.97712 | -57.76794 | 33000 ft | 405 kts | 271° |
| 2026-05-05 22:39 | -34.97679 | -57.80234 | 33341 ft | 403 kts | 271° |
| 2026-05-05 22:39 | -34.97588 | -57.83623 | 33666 ft | 401 kts | 273° |
| 2026-05-05 22:39 | -34.97355 | -57.87041 | 33967 ft | 400 kts | 276° |
| 2026-05-05 22:40 | -34.96990 | -57.90358 | 34244 ft | 399 kts | 278° |
| 2026-05-05 22:40 | -34.96480 | -57.93715 | 34519 ft | 399 kts | 280° |
| 2026-05-05 22:40 | -34.95842 | -57.96988 | 34824 ft | 398 kts | 283° |
| 2026-05-05 22:40 | -34.95085 | -58.00258 | 35139 ft | 396 kts | 284° |
| 2026-05-05 22:41 | -34.94336 | -58.03454 | 35436 ft | 394 kts | 283° |
| 2026-05-05 22:41 | -34.93582 | -58.06658 | 35707 ft | 392 kts | 283° |
| 2026-05-05 22:41 | -34.92827 | -58.09863 | 35964 ft | 391 kts | 283° |
| 2026-05-05 22:41 | -34.92079 | -58.13031 | 36219 ft | 389 kts | 283° |
| 2026-05-05 22:42 | -34.91327 | -58.16209 | 36425 ft | 389 kts | 283° |
| 2026-05-05 22:42 | -34.90572 | -58.19389 | 36582 ft | 389 kts | 283° |
| 2026-05-05 22:42 | -34.89822 | -58.22550 | 36747 ft | 389 kts | 283° |
| 2026-05-05 22:42 | -34.89073 | -58.25692 | 36893 ft | 389 kts | 283° |
| 2026-05-05 22:43 | -34.88307 | -58.28904 | 37031 ft | 389 kts | 283° |
| 2026-05-05 22:43 | -34.87560 | -58.32041 | 37154 ft | 389 kts | 283° |
| 2026-05-05 22:43 | -34.86802 | -58.35211 | 37250 ft | 389 kts | 283° |
| 2026-05-05 22:43 | -34.86042 | -58.38387 | 37358 ft | 390 kts | 283° |
| 2026-05-05 22:44 | -34.85281 | -58.41613 | 37456 ft | 389 kts | 281° |
| 2026-05-05 22:44 | -34.84615 | -58.48124 | 37637 ft | 386 kts | 268° |
| 2026-05-05 22:45 | -34.85258 | -58.54599 | 37822 ft | 387 kts | 257° |
| 2026-05-05 22:45 | -34.87168 | -58.60747 | 37945 ft | 391 kts | 245° |
| 2026-05-05 22:46 | -34.90200 | -58.66339 | 37965 ft | 394 kts | 238° |
| 2026-05-05 22:46 | -34.93473 | -58.71779 | 37954 ft | 395 kts | 238° |
| 2026-05-05 22:47 | -34.96714 | -58.77143 | 37948 ft | 394 kts | 238° |
| 2026-05-05 22:47 | -34.99980 | -58.82547 | 37950 ft | 394 kts | 238° |
| 2026-05-05 22:48 | -35.03256 | -58.87976 | 37954 ft | 393 kts | 238° |
| 2026-05-05 22:48 | -35.06493 | -58.93343 | 37952 ft | 393 kts | 238° |
| 2026-05-05 22:49 | -35.09716 | -58.98701 | 37959 ft | 393 kts | 238° |
| 2026-05-05 22:49 | -35.12951 | -59.04087 | 37952 ft | 392 kts | 238° |
| 2026-05-05 22:50 | -35.16177 | -59.09464 | 37954 ft | 392 kts | 238° |
| 2026-05-05 22:50 | -35.19395 | -59.14840 | 37951 ft | 392 kts | 239° |
| 2026-05-05 22:51 | -35.22570 | -59.20272 | 37961 ft | 391 kts | 239° |
| 2026-05-05 22:51 | -35.25693 | -59.25719 | 37969 ft | 391 kts | 239° |
| 2026-05-05 22:52 | -35.28832 | -59.31194 | 37962 ft | 392 kts | 239° |
| 2026-05-05 22:52 | -35.31947 | -59.36632 | 37969 ft | 391 kts | 239° |
| 2026-05-05 22:53 | -35.35068 | -59.42084 | 37970 ft | 391 kts | 239° |
| 2026-05-05 22:53 | -35.38228 | -59.47538 | 37962 ft | 392 kts | 239° |
| 2026-05-05 22:54 | -35.41423 | -59.52973 | 37958 ft | 391 kts | 239° |
| 2026-05-05 22:54 | -35.44608 | -59.58405 | 37963 ft | 391 kts | 239° |
| 2026-05-05 22:55 | -35.47775 | -59.63821 | 37966 ft | 391 kts | 239° |
| 2026-05-05 22:55 | -35.50956 | -59.69273 | 37959 ft | 390 kts | 239° |
| 2026-05-05 22:56 | -35.54106 | -59.74680 | 37957 ft | 390 kts | 239° |
| 2026-05-05 22:56 | -35.57273 | -59.80126 | 37956 ft | 390 kts | 239° |
| 2026-05-05 22:57 | -35.60404 | -59.85516 | 37955 ft | 390 kts | 240° |
| 2026-05-05 22:57 | -35.63564 | -59.90966 | 37950 ft | 390 kts | 240° |
| 2026-05-05 22:58 | -35.66695 | -59.96382 | 37955 ft | 390 kts | 239° |
| 2026-05-05 22:58 | -35.69822 | -60.01790 | 37957 ft | 389 kts | 239° |
| 2026-05-05 22:59 | -35.72951 | -60.07211 | 37955 ft | 389 kts | 240° |
| 2026-05-05 22:59 | -35.76073 | -60.12630 | 37959 ft | 388 kts | 239° |
| 2026-05-05 23:00 | -35.80736 | -60.20737 | 37959 ft | 387 kts | 240° |
| 2026-05-05 23:00 | -35.83849 | -60.26165 | 37960 ft | 387 kts | 239° |
| 2026-05-05 23:01 | -35.86952 | -60.31577 | 37959 ft | 387 kts | 240° |
| 2026-05-05 23:01 | -35.90054 | -60.36997 | 37958 ft | 387 kts | 240° |
| 2026-05-05 23:02 | -35.93145 | -60.42409 | 37966 ft | 388 kts | 240° |
| 2026-05-05 23:02 | -35.96243 | -60.47845 | 37956 ft | 388 kts | 240° |
| 2026-05-05 23:03 | -35.99337 | -60.53280 | 37962 ft | 389 kts | 240° |
| 2026-05-05 23:03 | -36.02445 | -60.58748 | 37955 ft | 388 kts | 239° |
| 2026-05-05 23:04 | -36.05537 | -60.64196 | 37954 ft | 388 kts | 240° |
| 2026-05-05 23:04 | -36.08622 | -60.69641 | 37970 ft | 388 kts | 240° |
| 2026-05-05 23:05 | -36.11729 | -60.75134 | 37955 ft | 388 kts | 240° |
| 2026-05-05 23:05 | -36.14798 | -60.80581 | 37957 ft | 387 kts | 241° |
| 2026-05-05 23:06 | -36.17863 | -60.86050 | 37963 ft | 388 kts | 240° |
| 2026-05-05 23:06 | -36.20925 | -60.91527 | 37956 ft | 388 kts | 240° |
| 2026-05-05 23:07 | -36.23979 | -60.96999 | 37959 ft | 387 kts | 240° |
| 2026-05-05 23:07 | -36.27042 | -61.02492 | 37949 ft | 387 kts | 240° |
| 2026-05-05 23:08 | -36.30077 | -61.07946 | 37948 ft | 386 kts | 240° |
| 2026-05-05 23:08 | -36.33137 | -61.13451 | 37959 ft | 387 kts | 241° |
| 2026-05-05 23:09 | -36.36172 | -61.18925 | 37962 ft | 387 kts | 241° |
| 2026-05-05 23:09 | -36.39220 | -61.24424 | 37947 ft | 387 kts | 240° |
| 2026-05-05 23:10 | -36.42267 | -61.29929 | 37965 ft | 386 kts | 241° |
| 2026-05-05 23:10 | -36.45289 | -61.35402 | 37958 ft | 386 kts | 241° |
| 2026-05-05 23:11 | -36.48306 | -61.40875 | 37946 ft | 387 kts | 241° |
| 2026-05-05 23:11 | -36.51353 | -61.46416 | 37950 ft | 385 kts | 241° |
| 2026-05-05 23:12 | -36.54369 | -61.51907 | 37952 ft | 386 kts | 241° |
| 2026-05-05 23:12 | -36.57379 | -61.57398 | 37960 ft | 386 kts | 241° |
| 2026-05-05 23:13 | -36.60413 | -61.62934 | 37950 ft | 386 kts | 242° |
| 2026-05-05 23:13 | -36.63431 | -61.68461 | 37948 ft | 387 kts | 242° |
| 2026-05-05 23:14 | -36.66446 | -61.73988 | 37948 ft | 385 kts | 242° |
| 2026-05-05 23:14 | -36.69450 | -61.79498 | 37794 ft | 385 kts | 242° |
| 2026-05-05 23:15 | -36.70935 | -61.82225 | 37898 ft | 386 kts | 242° |
| 2026-05-05 23:15 | -36.72439 | -61.84996 | 37934 ft | 386 kts | 242° |
| 2026-05-05 23:15 | -36.75450 | -61.90540 | 37960 ft | 387 kts | 242° |
| 2026-05-05 23:16 | -36.78451 | -61.96077 | 37963 ft | 386 kts | 242° |
| 2026-05-05 23:16 | -36.81459 | -62.01631 | 37972 ft | 386 kts | 242° |
| 2026-05-05 23:17 | -36.84470 | -62.07203 | 37961 ft | 388 kts | 243° |
| 2026-05-05 23:17 | -36.87449 | -62.12729 | 37960 ft | 388 kts | 242° |
| 2026-05-05 23:18 | -36.90474 | -62.18349 | 37950 ft | 387 kts | 242° |
| 2026-05-05 23:18 | -36.93462 | -62.23903 | 37968 ft | 387 kts | 242° |
| 2026-05-05 23:19 | -36.96477 | -62.29516 | 37983 ft | 387 kts | 243° |
| 2026-05-05 23:19 | -36.99479 | -62.35122 | 37965 ft | 387 kts | 243° |
| 2026-05-05 23:20 | -37.02495 | -62.40760 | 37962 ft | 388 kts | 242° |
| 2026-05-05 23:20 | -37.05495 | -62.46375 | 37954 ft | 387 kts | 243° |
| 2026-05-05 23:21 | -37.08500 | -62.52012 | 37955 ft | 388 kts | 243° |
| 2026-05-05 23:21 | -37.11479 | -62.57606 | 37950 ft | 387 kts | 243° |
| 2026-05-05 23:22 | -37.14484 | -62.63264 | 37950 ft | 388 kts | 243° |
| 2026-05-05 23:22 | -37.17503 | -62.68960 | 37952 ft | 389 kts | 243° |
| 2026-05-05 23:23 | -37.20506 | -62.74628 | 37951 ft | 387 kts | 243° |
| 2026-05-05 23:23 | -37.23506 | -62.80301 | 37949 ft | 388 kts | 243° |
| 2026-05-05 23:24 | -37.26482 | -62.85939 | 37946 ft | 388 kts | 244° |
| 2026-05-05 23:24 | -37.29498 | -62.91666 | 37945 ft | 389 kts | 244° |
| 2026-05-05 23:25 | -37.32496 | -62.97372 | 37947 ft | 389 kts | 244° |
| 2026-05-05 23:25 | -37.35486 | -63.03061 | 37941 ft | 389 kts | 244° |
| 2026-05-05 23:26 | -37.38486 | -63.08756 | 37946 ft | 390 kts | 244° |
| 2026-05-05 23:26 | -37.41474 | -63.14442 | 37939 ft | 390 kts | 244° |
| 2026-05-05 23:27 | -37.44478 | -63.20168 | 37940 ft | 390 kts | 244° |
| 2026-05-05 23:27 | -37.45966 | -63.23009 | 38065 ft | 390 kts | 244° |
| 2026-05-05 23:27 | -37.47456 | -63.25851 | 37983 ft | 389 kts | 244° |
| 2026-05-05 23:28 | -37.50458 | -63.31596 | 37952 ft | 390 kts | 244° |
| 2026-05-05 23:28 | -37.53448 | -63.37325 | 37945 ft | 391 kts | 244° |
| 2026-05-05 23:29 | -37.56444 | -63.43080 | 37945 ft | 390 kts | 244° |
| 2026-05-05 23:29 | -37.59427 | -63.48821 | 37947 ft | 390 kts | 244° |
| 2026-05-05 23:30 | -37.62408 | -63.54561 | 37937 ft | 390 kts | 244° |
| 2026-05-05 23:30 | -37.65374 | -63.60283 | 37932 ft | 390 kts | 244° |
| 2026-05-05 23:31 | -37.68327 | -63.65997 | 37938 ft | 390 kts | 244° |
| 2026-05-05 23:31 | -37.71309 | -63.71773 | 37931 ft | 390 kts | 245° |
| 2026-05-05 23:32 | -37.74274 | -63.77528 | 37929 ft | 390 kts | 245° |
| 2026-05-05 23:32 | -37.77239 | -63.83291 | 37933 ft | 390 kts | 244° |
| 2026-05-05 23:33 | -37.80219 | -63.89090 | 37929 ft | 390 kts | 245° |
| 2026-05-05 23:33 | -37.83184 | -63.94875 | 37927 ft | 390 kts | 245° |
| 2026-05-05 23:34 | -37.86174 | -64.00722 | 37926 ft | 390 kts | 245° |
| 2026-05-05 23:34 | -37.89143 | -64.06532 | 37926 ft | 390 kts | 245° |
| 2026-05-05 23:35 | -37.92083 | -64.12298 | 37926 ft | 390 kts | 245° |
| 2026-05-05 23:35 | -37.95036 | -64.18107 | 37927 ft | 391 kts | 245° |
| 2026-05-05 23:36 | -37.97982 | -64.23897 | 37921 ft | 391 kts | 245° |
| 2026-05-05 23:36 | -38.00950 | -64.29755 | 37927 ft | 391 kts | 245° |
| 2026-05-05 23:37 | -38.03877 | -64.35536 | 37923 ft | 390 kts | 245° |
| 2026-05-05 23:37 | -38.06816 | -64.41352 | 37923 ft | 390 kts | 245° |
| 2026-05-05 23:38 | -38.09765 | -64.47201 | 37924 ft | 391 kts | 245° |
| 2026-05-05 23:38 | -38.12695 | -64.53021 | 37922 ft | 391 kts | 245° |
| 2026-05-05 23:39 | -38.15604 | -64.58813 | 37927 ft | 391 kts | 245° |
| 2026-05-05 23:39 | -38.18539 | -64.64674 | 37930 ft | 391 kts | 245° |
| 2026-05-05 23:40 | -38.21452 | -64.70506 | 37934 ft | 391 kts | 246° |
| 2026-05-05 23:40 | -38.24366 | -64.76343 | 37932 ft | 391 kts | 246° |
| 2026-05-05 23:41 | -38.27271 | -64.82180 | 37934 ft | 391 kts | 246° |
| 2026-05-05 23:41 | -38.30190 | -64.88049 | 37944 ft | 391 kts | 246° |
| 2026-05-05 23:42 | -38.33103 | -64.93921 | 37943 ft | 391 kts | 246° |
| 2026-05-05 23:42 | -38.36031 | -64.99830 | 37951 ft | 391 kts | 246° |
| 2026-05-05 23:43 | -38.38924 | -65.05681 | 37942 ft | 390 kts | 246° |
| 2026-05-05 23:43 | -38.41833 | -65.11578 | 37829 ft | 390 kts | 246° |
| 2026-05-05 23:44 | -38.44760 | -65.17522 | 37925 ft | 391 kts | 246° |
| 2026-05-05 23:44 | -38.47674 | -65.23446 | 37944 ft | 392 kts | 246° |
| 2026-05-05 23:45 | -38.50570 | -65.29347 | 37938 ft | 392 kts | 246° |
| 2026-05-05 23:45 | -38.53493 | -65.35310 | 37930 ft | 392 kts | 246° |
| 2026-05-05 23:46 | -38.56389 | -65.41237 | 37939 ft | 391 kts | 246° |
| 2026-05-05 23:46 | -38.59275 | -65.47142 | 37930 ft | 392 kts | 246° |
| 2026-05-05 23:47 | -38.62167 | -65.53085 | 37941 ft | 391 kts | 246° |
| 2026-05-05 23:47 | -38.65061 | -65.59032 | 37930 ft | 391 kts | 246° |
| 2026-05-05 23:48 | -38.67927 | -65.64936 | 37944 ft | 392 kts | 246° |
| 2026-05-05 23:48 | -38.70795 | -65.70860 | 37931 ft | 391 kts | 247° |
| 2026-05-05 23:49 | -38.73667 | -65.76800 | 37940 ft | 391 kts | 247° |
| 2026-05-05 23:49 | -38.76512 | -65.82689 | 37915 ft | 391 kts | 247° |
| 2026-05-05 23:50 | -38.79383 | -65.88648 | 37927 ft | 391 kts | 247° |
| 2026-05-05 23:50 | -38.82229 | -65.94569 | 37924 ft | 391 kts | 248° |
| 2026-05-05 23:51 | -38.85076 | -66.00500 | 37925 ft | 392 kts | 247° |
| 2026-05-05 23:51 | -38.87923 | -66.06452 | 37924 ft | 392 kts | 247° |
| 2026-05-05 23:52 | -38.90786 | -66.12437 | 37926 ft | 391 kts | 247° |
| 2026-05-05 23:52 | -38.93624 | -66.18385 | 37923 ft | 392 kts | 248° |
| 2026-05-05 23:53 | -38.96449 | -66.24329 | 37921 ft | 393 kts | 248° |
| 2026-05-05 23:53 | -38.99295 | -66.30336 | 37922 ft | 393 kts | 248° |
| 2026-05-05 23:54 | -39.02127 | -66.36320 | 37924 ft | 393 kts | 248° |
| 2026-05-05 23:54 | -39.04947 | -66.42293 | 37919 ft | 393 kts | 248° |
| 2026-05-05 23:55 | -39.07786 | -66.48309 | 37920 ft | 393 kts | 247° |
| 2026-05-05 23:55 | -39.10608 | -66.54307 | 37913 ft | 393 kts | 248° |
| 2026-05-05 23:56 | -39.13420 | -66.60297 | 37912 ft | 393 kts | 248° |
| 2026-05-05 23:56 | -39.16253 | -66.66344 | 37914 ft | 393 kts | 248° |
| 2026-05-05 23:57 | -39.19061 | -66.72343 | 37908 ft | 394 kts | 248° |
| 2026-05-05 23:57 | -39.21881 | -66.78381 | 37909 ft | 393 kts | 248° |
| 2026-05-05 23:58 | -39.24681 | -66.84386 | 37908 ft | 393 kts | 248° |
| 2026-05-05 23:58 | -39.27494 | -66.90435 | 37910 ft | 393 kts | 248° |
| 2026-05-05 23:59 | -39.30307 | -66.96493 | 37919 ft | 393 kts | 248° |
| 2026-05-05 23:59 | -39.33097 | -67.02517 | 37924 ft | 393 kts | 248° |
| 2026-05-06 00:00 | -39.35893 | -67.08557 | 37923 ft | 393 kts | 248° |
| 2026-05-06 00:00 | -39.38680 | -67.14598 | 37917 ft | 394 kts | 248° |
| 2026-05-06 00:01 | -39.41491 | -67.20694 | 37922 ft | 394 kts | 248° |
| 2026-05-06 00:01 | -39.44282 | -67.26766 | 37908 ft | 394 kts | 248° |
| 2026-05-06 00:02 | -39.47060 | -67.32822 | 37917 ft | 394 kts | 248° |
| 2026-05-06 00:02 | -39.49844 | -67.38900 | 37906 ft | 394 kts | 248° |
| 2026-05-06 00:03 | -39.52645 | -67.45025 | 37908 ft | 394 kts | 248° |
| 2026-05-06 00:03 | -39.55434 | -67.51135 | 37926 ft | 395 kts | 248° |
| 2026-05-06 00:04 | -39.58206 | -67.57221 | 37914 ft | 395 kts | 248° |
| 2026-05-06 00:04 | -39.60999 | -67.63368 | 37913 ft | 395 kts | 247° |
| 2026-05-06 00:05 | -39.65156 | -67.72543 | 37920 ft | 395 kts | 248° |
| 2026-05-06 00:06 | -39.67930 | -67.78672 | 37925 ft | 395 kts | 248° |
| 2026-05-06 00:06 | -39.70707 | -67.84824 | 37908 ft | 396 kts | 248° |
| 2026-05-06 00:07 | -39.73474 | -67.90969 | 37912 ft | 396 kts | 248° |
| 2026-05-06 00:07 | -39.76253 | -67.97154 | 37907 ft | 397 kts | 248° |
| 2026-05-06 00:08 | -39.79011 | -68.03304 | 37895 ft | 397 kts | 248° |
| 2026-05-06 00:08 | -39.81879 | -68.09449 | 37897 ft | 400 kts | 245° |
| 2026-05-06 00:09 | -39.84944 | -68.15478 | 37896 ft | 399 kts | 245° |
| 2026-05-06 00:09 | -39.87995 | -68.21476 | 37899 ft | 400 kts | 245° |
| 2026-05-06 00:10 | -39.91065 | -68.27527 | 37889 ft | 401 kts | 245° |
| 2026-05-06 00:10 | -39.94124 | -68.33572 | 37897 ft | 401 kts | 244° |
| 2026-05-06 00:11 | -39.97175 | -68.39608 | 37900 ft | 402 kts | 245° |
| 2026-05-06 00:11 | -40.00256 | -68.45723 | 37891 ft | 402 kts | 244° |
| 2026-05-06 00:12 | -40.03317 | -68.51802 | 37893 ft | 402 kts | 244° |
| 2026-05-06 00:12 | -40.06379 | -68.57894 | 37901 ft | 403 kts | 244° |
| 2026-05-06 00:13 | -40.09433 | -68.63989 | 37917 ft | 403 kts | 244° |
| 2026-05-06 00:13 | -40.12477 | -68.70076 | 37891 ft | 403 kts | 245° |
| 2026-05-06 00:14 | -40.15538 | -68.76205 | 37892 ft | 404 kts | 245° |
| 2026-05-06 00:14 | -40.18585 | -68.82320 | 37901 ft | 403 kts | 245° |
| 2026-05-06 00:15 | -40.21625 | -68.88435 | 37913 ft | 404 kts | 245° |
| 2026-05-06 00:15 | -40.24680 | -68.94590 | 37900 ft | 404 kts | 245° |
| 2026-05-06 00:16 | -40.27725 | -69.00738 | 37911 ft | 404 kts | 245° |
| 2026-05-06 00:16 | -40.30794 | -69.06944 | 37909 ft | 405 kts | 245° |
| 2026-05-06 00:17 | -40.33831 | -69.13107 | 37901 ft | 405 kts | 245° |
| 2026-05-06 00:17 | -40.36880 | -69.19289 | 37872 ft | 406 kts | 245° |
| 2026-05-06 00:18 | -40.39929 | -69.25481 | 37894 ft | 407 kts | 245° |
| 2026-05-06 00:18 | -40.42977 | -69.31692 | 37877 ft | 406 kts | 244° |
| 2026-05-06 00:19 | -40.46040 | -69.37942 | 37892 ft | 407 kts | 245° |
| 2026-05-06 00:19 | -40.49094 | -69.44186 | 37875 ft | 408 kts | 245° |
| 2026-05-06 00:20 | -40.52141 | -69.50437 | 37880 ft | 411 kts | 245° |
| 2026-05-06 00:20 | -40.55205 | -69.56730 | 37874 ft | 410 kts | 245° |
| 2026-05-06 00:21 | -40.58279 | -69.63057 | 37878 ft | 410 kts | 244° |
| 2026-05-06 00:21 | -40.61332 | -69.69350 | 37865 ft | 410 kts | 245° |
| 2026-05-06 00:22 | -40.64409 | -69.75713 | 37880 ft | 410 kts | 245° |
| 2026-05-06 00:22 | -40.67473 | -69.82054 | 37872 ft | 411 kts | 245° |
| 2026-05-06 00:23 | -40.70537 | -69.88411 | 37868 ft | 413 kts | 245° |
| 2026-05-06 00:23 | -40.73596 | -69.94777 | 37862 ft | 414 kts | 245° |
| 2026-05-06 00:24 | -40.76660 | -70.01160 | 37860 ft | 414 kts | 245° |
| 2026-05-06 00:24 | -40.79731 | -70.07572 | 37859 ft | 415 kts | 245° |
| 2026-05-06 00:25 | -40.82815 | -70.14025 | 37862 ft | 417 kts | 245° |
| 2026-05-06 00:25 | -40.85887 | -70.20470 | 37869 ft | 416 kts | 245° |
| 2026-05-06 00:26 | -40.88962 | -70.26933 | 37871 ft | 417 kts | 245° |
| 2026-05-06 00:26 | -40.92031 | -70.33401 | 37862 ft | 417 kts | 245° |
| 2026-05-06 00:27 | -40.95032 | -70.39955 | 37855 ft | 415 kts | 248° |
| 2026-05-06 00:27 | -40.97526 | -70.46758 | 37861 ft | 409 kts | 253° |
| 2026-05-06 00:28 | -40.99448 | -70.53777 | 37853 ft | 405 kts | 258° |
| 2026-05-06 00:28 | -41.01064 | -70.60863 | 37856 ft | 404 kts | 259° |
| 2026-05-06 00:29 | -41.02679 | -70.68016 | 37858 ft | 405 kts | 259° |
| 2026-05-06 00:29 | -41.04288 | -70.75156 | 37846 ft | 405 kts | 259° |
| 2026-05-06 00:30 | -41.05894 | -70.82286 | 37834 ft | 405 kts | 259° |
| 2026-05-06 00:30 | -41.07491 | -70.89419 | 37879 ft | 405 kts | 259° |
| 2026-05-06 00:31 | -41.09089 | -70.96564 | 37798 ft | 406 kts | 259° |
| 2026-05-06 00:31 | -41.10677 | -71.03706 | 37847 ft | 406 kts | 259° |
| 2026-05-06 00:32 | -41.12257 | -71.10828 | 37856 ft | 406 kts | 259° |
| 2026-05-06 00:32 | -41.13820 | -71.18009 | 37850 ft | 404 kts | 261° |
| 2026-05-06 00:33 | -41.15036 | -71.25244 | 37860 ft | 403 kts | 264° |
| 2026-05-06 00:33 | -41.16164 | -71.32496 | 37853 ft | 404 kts | 264° |
| 2026-05-06 00:34 | -41.17291 | -71.39774 | 37851 ft | 404 kts | 264° |
| 2026-05-06 00:34 | -41.18415 | -71.47070 | 37601 ft | 405 kts | 264° |
| 2026-05-06 00:34 | -41.18976 | -71.50696 | 37135 ft | 402 kts | 264° |
| 2026-05-06 00:35 | -41.19535 | -71.54324 | 36548 ft | 402 kts | 264° |
| 2026-05-06 00:35 | -41.20095 | -71.57963 | 35919 ft | 403 kts | 265° |
| 2026-05-06 00:35 | -41.20652 | -71.61603 | 35408 ft | 405 kts | 265° |
| 2026-05-06 00:35 | -41.21204 | -71.65242 | 34877 ft | 408 kts | 266° |
| 2026-05-06 00:36 | -41.21761 | -71.68913 | 34149 ft | 408 kts | 266° |
| 2026-05-06 00:36 | -41.22314 | -71.72588 | 33295 ft | 409 kts | 266° |
| 2026-05-06 00:36 | -41.22866 | -71.76290 | 32295 ft | 413 kts | 266° |
| 2026-05-06 00:36 | -41.23424 | -71.80014 | 31317 ft | 416 kts | 266° |
| 2026-05-06 00:37 | -41.23994 | -71.83814 | 30357 ft | 419 kts | 265° |
| 2026-05-06 00:37 | -41.24569 | -71.87575 | 29600 ft | 416 kts | 265° |
| 2026-05-06 00:37 | -41.25149 | -71.91258 | 29049 ft | 410 kts | 264° |
| 2026-05-06 00:37 | -41.25729 | -71.94930 | 28504 ft | 404 kts | 264° |
| 2026-05-06 00:38 | -41.26299 | -71.98549 | 27995 ft | 398 kts | 264° |
| 2026-05-06 00:38 | -41.26864 | -72.02155 | 27483 ft | 393 kts | 264° |
| 2026-05-06 00:38 | -41.27403 | -72.05640 | 26987 ft | 389 kts | 265° |
| 2026-05-06 00:38 | -41.27945 | -72.09164 | 26444 ft | 386 kts | 264° |
| 2026-05-06 00:39 | -41.28478 | -72.12634 | 25936 ft | 382 kts | 264° |
| 2026-05-06 00:39 | -41.28999 | -72.16040 | 25452 ft | 378 kts | 263° |
| 2026-05-06 00:39 | -41.29518 | -72.19425 | 24965 ft | 375 kts | 263° |
| 2026-05-06 00:39 | -41.30043 | -72.22823 | 24418 ft | 373 kts | 263° |
| 2026-05-06 00:40 | -41.30553 | -72.26180 | 23901 ft | 372 kts | 264° |
| 2026-05-06 00:40 | -41.31072 | -72.29549 | 23395 ft | 369 kts | 263° |
| 2026-05-06 00:40 | -41.31576 | -72.32852 | 22917 ft | 366 kts | 263° |
| 2026-05-06 00:40 | -41.32082 | -72.36162 | 22434 ft | 363 kts | 263° |
| 2026-05-06 00:41 | -41.32576 | -72.39409 | 21956 ft | 361 kts | 263° |
| 2026-05-06 00:41 | -41.33067 | -72.42657 | 21478 ft | 358 kts | 263° |
| 2026-05-06 00:41 | -41.33557 | -72.45890 | 21001 ft | 356 kts | 263° |
| 2026-05-06 00:41 | -41.34042 | -72.49110 | 20508 ft | 354 kts | 263° |
| 2026-05-06 00:42 | -41.34520 | -72.52284 | 20013 ft | 352 kts | 262° |
| 2026-05-06 00:42 | -41.34997 | -72.55466 | 19550 ft | 349 kts | 262° |
| 2026-05-06 00:42 | -41.35470 | -72.58620 | 19070 ft | 348 kts | 262° |
| 2026-05-06 00:42 | -41.35944 | -72.61784 | 18576 ft | 346 kts | 262° |
| 2026-05-06 00:43 | -41.36404 | -72.64865 | 18100 ft | 344 kts | 262° |
| 2026-05-06 00:43 | -41.36867 | -72.67971 | 17636 ft | 342 kts | 263° |
| 2026-05-06 00:43 | -41.37328 | -72.71057 | 17172 ft | 340 kts | 263° |
| 2026-05-06 00:43 | -41.37790 | -72.74157 | 16687 ft | 338 kts | 263° |
| 2026-05-06 00:44 | -41.38240 | -72.77206 | 16209 ft | 337 kts | 263° |
| 2026-05-06 00:44 | -41.38691 | -72.80262 | 15718 ft | 336 kts | 263° |
| 2026-05-06 00:44 | -41.39140 | -72.83296 | 15240 ft | 335 kts | 263° |
| 2026-05-06 00:44 | -41.39588 | -72.86340 | 14751 ft | 334 kts | 263° |
| 2026-05-06 00:45 | -41.40036 | -72.89384 | 14257 ft | 333 kts | 262° |
| 2026-05-06 00:45 | -41.40481 | -72.92425 | 13775 ft | 332 kts | 262° |
| 2026-05-06 00:45 | -41.40920 | -72.95416 | 13304 ft | 330 kts | 262° |
| 2026-05-06 00:45 | -41.41662 | -72.98325 | 12811 ft | 335 kts | 243° |
| 2026-05-06 00:46 | -41.43223 | -73.00649 | 12329 ft | 344 kts | 220° |
| 2026-05-06 00:46 | -41.45396 | -73.02001 | 11832 ft | 351 kts | 195° |
| 2026-05-06 00:46 | -41.47840 | -73.02087 | 11363 ft | 356 kts | 171° |
| 2026-05-06 00:46 | -41.50126 | -73.00834 | 10885 ft | 357 kts | 145° |
| 2026-05-06 00:47 | -41.51972 | -72.98727 | 10541 ft | 342 kts | 137° |
| 2026-05-06 00:47 | -41.53650 | -72.96598 | 10392 ft | 320 kts | 136° |
| 2026-05-06 00:47 | -41.55175 | -72.94508 | 10216 ft | 303 kts | 125° |
| 2026-05-06 00:47 | -41.55960 | -72.91958 | 10062 ft | 292 kts | 94° |
| 2026-05-06 00:48 | -41.55751 | -72.89322 | 9851 ft | 284 kts | 64° |
| 2026-05-06 00:48 | -41.54661 | -72.87244 | 9478 ft | 273 kts | 35° |
| 2026-05-06 00:48 | -41.53022 | -72.86130 | 9121 ft | 263 kts | 8° |
| 2026-05-06 00:48 | -41.51223 | -72.86118 | 8790 ft | 254 kts | 343° |
| 2026-05-06 00:49 | -41.49658 | -72.87122 | 8467 ft | 252 kts | 320° |
| 2026-05-06 00:49 | -41.48459 | -72.88869 | 8151 ft | 254 kts | 310° |
| 2026-05-06 00:49 | -41.47351 | -72.90691 | 7829 ft | 258 kts | 310° |
| 2026-05-06 00:49 | -41.46125 | -72.92448 | 7492 ft | 261 kts | 325° |
| 2026-05-06 00:50 | -41.44435 | -72.93332 | 7155 ft | 261 kts | 353° |
| 2026-05-06 00:50 | -41.42628 | -72.93339 | 6833 ft | 260 kts | 358° |
| 2026-05-06 00:50 | -41.40834 | -72.93522 | 6507 ft | 258 kts | 352° |
| 2026-05-06 00:50 | -41.39077 | -72.93811 | 6182 ft | 256 kts | 352° |
| 2026-05-06 00:51 | -41.37292 | -72.94093 | 5850 ft | 255 kts | 353° |
| 2026-05-06 00:51 | -41.35553 | -72.94341 | 5523 ft | 253 kts | 354° |
| 2026-05-06 00:51 | -41.33784 | -72.94576 | 5185 ft | 253 kts | 355° |
| 2026-05-06 00:51 | -41.32037 | -72.94795 | 4855 ft | 252 kts | 355° |
| 2026-05-06 00:52 | -41.30293 | -72.95010 | 4526 ft | 249 kts | 355° |
| 2026-05-06 00:52 | -41.28576 | -72.95243 | 4195 ft | 247 kts | 351° |
| 2026-05-06 00:52 | -41.27037 | -72.96186 | 3844 ft | 248 kts | 319° |
| 2026-05-06 00:52 | -41.26162 | -72.98144 | 3511 ft | 249 kts | 287° |
| 2026-05-06 00:53 | -41.26033 | -73.00420 | 3192 ft | 245 kts | 274° |
| 2026-05-06 00:53 | -41.26028 | -73.02620 | 2980 ft | 233 kts | 274° |
| 2026-05-06 00:53 | -41.26020 | -73.04688 | 2966 ft | 218 kts | 275° |
| 2026-05-06 00:53 | -41.26083 | -73.06654 | 2962 ft | 205 kts | 259° |
| 2026-05-06 00:54 | -41.26807 | -73.08167 | 2994 ft | 193 kts | 220° |
| 2026-05-06 00:54 | -41.27974 | -73.08820 | 2956 ft | 175 kts | 189° |
| 2026-05-06 00:54 | -41.29134 | -73.08963 | 2919 ft | 164 kts | 178° |
| 2026-05-06 00:54 | -41.30248 | -73.08962 | 2671 ft | 153 kts | 175° |
| 2026-05-06 00:55 | -41.31270 | -73.08955 | 2442 ft | 143 kts | 175° |
| 2026-05-06 00:55 | -41.32259 | -73.08968 | 2275 ft | 141 kts | 176° |
| 2026-05-06 00:55 | -41.33232 | -73.08997 | 2100 ft | 139 kts | 178° |
| 2026-05-06 00:55 | -41.34204 | -73.09036 | 1912 ft | 138 kts | 177° |
| 2026-05-06 00:56 | -41.35157 | -73.09072 | 1735 ft | 134 kts | 178° |
| 2026-05-06 00:56 | -41.36081 | -73.09108 | 1549 ft | 132 kts | 178° |
| 2026-05-06 00:56 | -41.37005 | -73.09143 | 1376 ft | 131 kts | 178° |
| 2026-05-06 00:56 | -41.37910 | -73.09178 | 1201 ft | 130 kts | 178° |
| 2026-05-06 00:57 | -41.38815 | -73.09212 | 1027 ft | 128 kts | 179° |
| 2026-05-06 00:57 | -41.39701 | -73.09243 | 863 ft | 126 kts | 179° |
| 2026-05-06 00:57 | -41.40564 | -73.09274 | 692 ft | 124 kts | 180° |
| 2026-05-06 00:57 | -41.41425 | -73.09305 | 536 ft | 122 kts | 180° |
| 2026-05-06 00:58 | -41.42273 | -73.09334 | 371 ft | 120 kts | 180° |
| 2026-05-06 00:58 | -41.43101 | -73.09367 | 279 ft | 107 kts | 180° |
| 2026-05-06 00:58 | -41.43568 | -73.09379 | 283 ft | 44 kts | 180° |
| 2026-05-06 00:58 | -41.43714 | -73.09433 | 283 ft | 13 kts | 260° |
| 2026-05-06 00:59 | -41.43722 | -73.09556 | 282 ft | 14 kts | 265° |
| 2026-05-06 00:59 | -41.43659 | -73.09612 | 281 ft | 12 kts | 357° |
| 2026-05-06 00:59 | -41.43565 | -73.09613 | 281 ft | 14 kts | 0° |
| 2026-05-06 00:59 | -41.43461 | -73.09609 | 280 ft | 15 kts | 3° |
| 2026-05-06 01:00 | -41.43370 | -73.09632 | 280 ft | 11 kts | 300° |
| 2026-05-06 01:00 | -41.43362 | -73.09727 | 279 ft | 6 kts | 273° |
| 2026-05-06 01:00 | -41.43361 | -73.09758 | 278 ft | 0 kts | 272° |
| 2026-05-06 01:00 | -41.43361 | -73.09759 | 278 ft | 0 kts | 272° |